Time;durP1;ratioP1;P1;durP2;ratioP2;P2;SDS_P1;SDS_P2;PMS_P1;PMS_P2;Temp;Humidity;BMP_temperature;BMP_pressure;BME280_temperature;BME280_humidity;BME280_pressure;Samples;Min_cycle;Max_cycle;Signal;HPM_P1;HPM_P2
2022/05/08 00:02:22;;;;;;;4.43;3.40;;;;;;;15.53;nan;101034.16;5013634;28;20404;-80
2022/05/08 00:04:51;;;;;;;4.53;2.90;;;;;;;15.45;nan;101038.50;5042364;28;20229;-81
2022/05/08 00:07:17;;;;;;;4.15;2.60;;;;;;;15.37;nan;101032.38;5044626;28;20536;-83
2022/05/08 00:09:43;;;;;;;4.28;2.60;;;;;;;15.29;nan;101036.72;5040493;28;20029;-81
2022/05/08 00:12:11;;;;;;;3.97;3.05;;;;;;;15.23;nan;101033.88;5026724;28;20090;-81
2022/05/08 00:14:40;;;;;;;5.72;3.63;;;;;;;15.25;nan;101032.75;5057465;28;20033;-83
2022/05/08 00:17:06;;;;;;;5.53;2.92;;;;;;;15.24;nan;101025.72;5048155;28;20048;-81
2022/05/08 00:19:32;;;;;;;5.18;3.30;;;;;;;15.27;nan;101025.38;5035689;28;20737;-80
2022/05/08 00:21:59;;;;;;;4.32;2.75;;;;;;;15.21;nan;101035.91;5016610;28;20045;-81
2022/05/08 00:24:26;;;;;;;4.13;2.75;;;;;;;15.14;nan;101032.25;5019530;28;20048;-80
2022/05/08 00:26:52;;;;;;;3.92;2.50;;;;;;;15.03;nan;101028.94;5016869;28;20029;-80
2022/05/08 00:29:18;;;;;;;4.10;2.97;;;;;;;14.97;nan;101029.63;5015437;28;20033;-79
2022/05/08 00:31:45;;;;;;;4.50;3.50;;;;;;;14.95;nan;101025.47;5019140;28;20309;-79
2022/05/08 00:34:14;;;;;;;4.30;3.30;;;;;;;14.90;nan;101031.28;5043515;28;20122;-80
2022/05/08 00:36:47;;;;;;;4.50;3.00;;;;;;;14.76;nan;101040.78;5036008;28;20029;-81
2022/05/08 00:39:16;;;;;;;3.78;2.90;;;;;;;14.64;nan;101040.28;5038047;28;20498;-81
2022/05/08 00:41:42;;;;;;;4.75;3.92;;;;;;;14.41;nan;101036.56;5042681;28;20048;-83
2022/05/08 00:44:08;;;;;;;8.18;4.20;;;;;;;14.29;nan;101044.03;5023774;28;20029;-81
2022/05/08 00:46:34;;;;;;;5.30;4.25;;;;;;;14.23;nan;101037.53;5044615;28;20037;-81
2022/05/08 00:49:01;;;;;;;4.60;3.67;;;;;;;14.23;nan;101039.38;5020573;28;20122;-81
2022/05/08 00:51:28;;;;;;;4.38;3.45;;;;;;;14.21;nan;101036.88;5037825;28;20029;-80
2022/05/08 00:53:58;;;;;;;5.20;3.90;;;;;;;14.19;nan;101025.56;5039437;28;20026;-79
2022/05/08 00:56:27;;;;;;;5.85;4.00;;;;;;;14.29;nan;101038.69;5035964;28;20183;-81
2022/05/08 00:58:54;;;;;;;5.32;4.07;;;;;;;14.31;nan;101042.03;5036846;28;20070;-79
2022/05/08 01:01:21;;;;;;;6.03;4.35;;;;;;;14.38;nan;101042.22;5032619;28;20056;-79
2022/05/08 01:03:47;;;;;;;5.80;4.55;;;;;;;14.50;nan;101040.06;5030915;28;20419;-80
2022/05/08 01:06:15;;;;;;;5.80;4.53;;;;;;;14.40;nan;101034.91;5048565;28;20041;-80
2022/05/08 01:08:44;;;;;;;4.88;4.35;;;;;;;14.38;nan;101032.41;5061335;28;20029;-82
2022/05/08 01:11:11;;;;;;;6.97;4.80;;;;;;;14.42;nan;101028.44;5044584;28;20044;-79
2022/05/08 01:13:39;;;;;;;9.35;5.35;;;;;;;14.45;nan;101028.09;5035509;28;20107;-79
2022/05/08 01:16:18;;;;;;;7.40;4.97;;;;;;;14.45;nan;101027.25;5036806;28;20038;-79
2022/05/08 01:18:47;;;;;;;6.53;4.97;;;;;;;14.44;nan;101031.75;5030793;28;20060;-80
2022/05/08 01:21:42;;;;;;;6.70;5.10;;;;;;;14.47;nan;101025.28;5035974;28;20037;-81
2022/05/08 01:24:09;;;;;;;6.82;4.57;;;;;;;14.42;nan;101030.25;5046806;28;20072;-80
2022/05/08 01:26:36;;;;;;;7.10;5.50;;;;;;;14.44;nan;101018.44;5048705;28;20041;-81
2022/05/08 01:29:03;;;;;;;8.00;5.72;;;;;;;14.43;nan;101022.09;5047361;28;20109;-80
2022/05/08 01:31:32;;;;;;;5.88;4.78;;;;;;;14.33;nan;101023.25;5047314;28;20037;-80
2022/05/08 01:33:58;;;;;;;6.28;4.93;;;;;;;14.34;nan;101019.59;5032157;28;20044;-80
2022/05/08 01:36:25;;;;;;;7.93;4.65;;;;;;;14.23;nan;101018.09;5034053;28;20048;-80
2022/05/08 01:38:52;;;;;;;8.43;5.38;;;;;;;14.20;nan;101019.22;5025339;28;20387;-80
2022/05/08 01:41:18;;;;;;;6.10;4.85;;;;;;;14.21;nan;101023.56;5016746;28;20096;-80
2022/05/08 01:43:44;;;;;;;6.78;5.15;;;;;;;14.15;nan;101024.19;5018655;28;20032;-80
2022/05/08 01:46:12;;;;;;;6.88;4.68;;;;;;;14.11;nan;101020.22;5031279;28;20033;-81
2022/05/08 01:48:37;;;;;;;6.22;4.30;;;;;;;14.07;nan;101023.38;5029161;28;20029;-80
2022/05/08 01:51:04;;;;;;;6.50;4.50;;;;;;;13.98;nan;101025.16;5032492;28;20040;-80
2022/05/08 01:53:32;;;;;;;6.18;4.10;;;;;;;13.92;nan;101026.66;5017349;28;20026;-80
2022/05/08 01:56:05;;;;;;;6.63;4.40;;;;;;;13.85;nan;101028.28;5012526;28;20415;-79
2022/05/08 01:58:31;;;;;;;5.72;3.80;;;;;;;13.78;nan;101033.41;5033174;28;20033;-80
2022/05/08 02:00:59;;;;;;;5.18;4.05;;;;;;;13.70;nan;101035.19;5033673;28;20026;-80
2022/05/08 02:03:26;;;;;;;5.25;4.00;;;;;;;13.59;nan;101041.63;5029873;28;20063;-80
2022/05/08 02:05:53;;;;;;;6.38;4.55;;;;;;;13.48;nan;101041.91;5037178;28;20041;-80
2022/05/08 02:08:19;;;;;;;5.40;4.38;;;;;;;13.39;nan;101043.66;5035669;28;20193;-80
2022/05/08 02:10:46;;;;;;;8.25;4.47;;;;;;;13.32;nan;101040.84;5021353;28;20049;-79
2022/05/08 02:13:12;;;;;;;4.57;3.42;;;;;;;13.26;nan;101046.72;5035656;28;20042;-80
2022/05/08 02:15:39;;;;;;;4.90;3.50;;;;;;;13.15;nan;101042.50;5036873;28;20033;-80
2022/05/08 02:18:07;;;;;;;4.60;3.78;;;;;;;13.04;nan;101045.44;5037613;28;20038;-80
2022/05/08 02:20:35;;;;;;;4.93;4.43;;;;;;;12.93;nan;101048.31;5022646;28;20115;-80
2022/05/08 02:23:01;;;;;;;5.07;3.95;;;;;;;12.84;nan;101043.94;5034991;28;20403;-80
2022/05/08 02:25:27;;;;;;;5.22;4.68;;;;;;;12.76;nan;101039.41;5034204;28;20036;-80
2022/05/08 02:27:54;;;;;;;4.40;3.67;;;;;;;12.73;nan;101043.19;5038195;28;20466;-80
2022/05/08 02:30:22;;;;;;;4.45;3.08;;;;;;;12.67;nan;101046.44;5042065;28;20052;-80
2022/05/08 02:32:51;;;;;;;3.72;2.92;;;;;;;12.60;nan;101044.56;5031893;28;20191;-81
2022/05/08 02:35:20;;;;;;;4.70;3.10;;;;;;;12.50;nan;101039.34;5046813;28;20025;-79
2022/05/08 02:37:48;;;;;;;3.10;2.53;;;;;;;12.43;nan;101039.09;5055407;28;20055;-80
2022/05/08 02:40:15;;;;;;;3.42;3.00;;;;;;;12.33;nan;101041.84;5039295;28;20097;-80
2022/05/08 02:42:41;;;;;;;3.95;3.17;;;;;;;12.28;nan;101036.16;5049071;28;20059;-81
2022/05/08 02:45:11;;;;;;;4.32;3.80;;;;;;;12.20;nan;101040.53;5031015;28;20060;-79
2022/05/08 02:47:41;;;;;;;;;;;;;;;12.14;nan;101049.09;5039874;28;20529;-80
2022/05/08 02:50:11;;;;;;;5.80;4.45;;;;;;;12.07;nan;101048.84;5059034;28;19950;-81
2022/05/08 02:52:39;;;;;;;4.82;3.92;;;;;;;12.03;nan;101043.00;5028980;28;20122;-80
2022/05/08 03:00:39;;;;;;;4.20;3.30;;;;;;;11.91;nan;101036.22;5047265;28;20044;-80
2022/05/08 03:03:07;;;;;;;4.60;3.47;;;;;;;11.85;nan;101040.28;5048712;28;20063;-80
2022/05/08 03:05:33;;;;;;;4.50;3.55;;;;;;;11.77;nan;101037.53;5046641;28;20053;-81
2022/05/08 03:07:59;;;;;;;;;;;;;;;11.71;nan;101042.59;5044262;28;20030;-81
2022/05/08 03:10:26;;;;;;;5.13;4.20;;;;;;;11.65;nan;101041.34;5049126;28;20023;-81
2022/05/08 03:12:52;;;;;;;4.28;3.78;;;;;;;11.77;nan;101048.13;5034281;28;20427;-79
2022/05/08 03:15:18;;;;;;;3.75;3.35;;;;;;;11.86;nan;101046.41;5034136;28;20407;-81
2022/05/08 03:17:44;;;;;;;4.50;3.70;;;;;;;11.81;nan;101051.31;5031617;28;20045;-81
2022/05/08 03:20:11;;;;;;;3.63;3.22;;;;;;;11.94;nan;101049.22;5050721;28;20418;-81
2022/05/08 03:22:36;;;;;;;3.63;3.30;;;;;;;12.00;nan;101053.06;5049325;28;20397;-81
2022/05/08 03:25:01;;;;;;;6.53;4.63;;;;;;;11.87;nan;101048.97;5047233;28;21417;-80
2022/05/08 03:27:27;;;;;;;5.55;4.68;;;;;;;11.84;nan;101048.38;5049442;28;20121;-81
2022/05/08 03:29:52;;;;;;;6.30;5.40;;;;;;;11.80;nan;101057.63;5051113;28;20030;-80
2022/05/08 03:32:17;;;;;;;8.65;6.25;;;;;;;11.74;nan;101058.19;5047215;28;20062;-79
2022/05/08 03:34:43;;;;;;;5.50;4.70;;;;;;;11.80;nan;101062.91;5047920;28;20417;-81
2022/05/08 03:37:08;;;;;;;4.87;4.17;;;;;;;11.83;nan;101058.16;5047325;28;20415;-80
2022/05/08 03:39:34;;;;;;;5.22;4.53;;;;;;;11.73;nan;101064.44;5059060;28;20124;-80
2022/05/08 03:41:59;;;;;;;6.03;4.97;;;;;;;11.64;nan;101064.34;5048865;28;20049;-81
2022/05/08 03:44:24;;;;;;;4.65;3.95;;;;;;;11.56;nan;101061.63;5031877;28;20046;-81
2022/05/08 03:46:50;;;;;;;6.10;4.38;;;;;;;11.49;nan;101060.53;5045541;28;20038;-80
2022/05/08 03:49:15;;;;;;;4.68;3.90;;;;;;;11.42;nan;101059.44;5050456;28;20037;-81
2022/05/08 03:51:40;;;;;;;4.07;3.30;;;;;;;11.37;nan;101054.56;5023024;28;20047;-81
2022/05/08 03:54:08;;;;;;;4.68;4.18;;;;;;;11.34;nan;101057.47;5036261;28;20029;-80
2022/05/08 03:56:35;;;;;;;4.80;3.78;;;;;;;11.30;nan;101060.56;5022865;28;20044;-79
2022/05/08 03:59:00;;;;;;;4.55;3.53;;;;;;;11.25;nan;101058.38;5039280;28;20517;-80
2022/05/08 04:01:26;;;;;;;4.10;3.60;;;;;;;11.20;nan;101066.72;5047311;28;20033;-80
2022/05/08 04:03:51;;;;;;;6.93;4.68;;;;;;;11.17;nan;101061.69;5039658;28;20037;-79
2022/05/08 04:06:17;;;;;;;5.28;4.65;;;;;;;11.16;nan;101072.47;5034966;28;20037;-79
2022/05/08 04:08:44;;;;;;;5.88;4.70;;;;;;;11.12;nan;101057.81;5042993;28;20033;-79
2022/05/08 04:11:09;;;;;;;6.93;6.03;;;;;;;11.08;nan;101062.56;5034847;28;20320;-79
2022/05/08 04:13:34;;;;;;;6.28;4.68;;;;;;;11.09;nan;101074.00;5025513;28;20056;-79
2022/05/08 04:16:18;;;;;;;4.60;4.10;;;;;;;11.08;nan;101067.84;5020687;28;20056;-79
2022/05/08 04:18:45;;;;;;;5.72;5.00;;;;;;;11.09;nan;101066.06;5028153;28;20084;-79
2022/05/08 04:21:10;;;;;;;4.40;3.70;;;;;;;11.14;nan;101066.47;5038946;28;20038;-79
2022/05/08 04:26:20;;;;;;;5.75;5.10;;;;;;;11.40;nan;101074.63;5036115;28;20044;-80
2022/05/08 04:28:45;;;;;;;7.03;5.40;;;;;;;11.57;nan;101076.50;5042887;28;20515;-80
2022/05/08 04:31:10;;;;;;;7.30;5.63;;;;;;;11.75;nan;101087.19;5034125;28;20069;-81
2022/05/08 04:33:36;;;;;;;5.70;5.07;;;;;;;11.95;nan;101082.66;5038666;28;20195;-79
2022/05/08 04:36:01;;;;;;;5.72;4.95;;;;;;;12.17;nan;101091.22;5037065;28;20041;-80
2022/05/08 04:38:26;;;;;;;5.90;4.65;;;;;;;12.33;nan;101096.69;5032280;28;20033;-79
2022/05/08 04:40:52;;;;;;;5.90;5.25;;;;;;;12.46;nan;101091.03;5014445;28;20046;-81
2022/05/08 04:43:17;;;;;;;5.55;4.55;;;;;;;12.62;nan;101099.13;5020946;28;20029;-80
2022/05/08 04:45:42;;;;;;;5.38;4.20;;;;;;;12.79;nan;101104.59;5022095;28;20041;-80
2022/05/08 04:48:08;;;;;;;4.97;4.35;;;;;;;12.92;nan;101108.56;5031665;28;20046;-79
2022/05/08 04:50:33;;;;;;;4.72;4.20;;;;;;;13.07;nan;101115.97;5017933;28;20037;-80
2022/05/08 04:52:59;;;;;;;4.20;3.55;;;;;;;13.22;nan;101108.28;5036563;28;20029;-80
2022/05/08 04:55:24;;;;;;;4.03;3.58;;;;;;;13.33;nan;101110.72;5034271;28;20084;-80
2022/05/08 04:57:50;;;;;;;4.30;3.88;;;;;;;13.48;nan;101121.59;5015102;28;20129;-81
2022/05/08 05:00:16;;;;;;;7.38;4.15;;;;;;;13.61;nan;101114.06;5034175;28;20557;-79
2022/05/08 05:02:41;;;;;;;4.57;3.88;;;;;;;13.72;nan;101119.09;5018353;28;20049;-80
2022/05/08 05:05:07;;;;;;;6.60;4.95;;;;;;;13.81;nan;101118.16;5035943;28;20053;-80
2022/05/08 05:07:32;;;;;;;6.18;4.93;;;;;;;13.92;nan;101118.84;5038381;28;20033;-81
2022/05/08 05:09:58;;;;;;;5.13;4.50;;;;;;;14.07;nan;101116.44;5020071;28;20036;-81
2022/05/08 05:12:23;;;;;;;5.82;4.28;;;;;;;14.23;nan;101120.00;5029816;28;20398;-81
2022/05/08 05:14:48;;;;;;;4.50;3.83;;;;;;;14.40;nan;101120.88;5013530;28;20068;-80
2022/05/08 05:17:14;;;;;;;4.65;3.70;;;;;;;14.56;nan;101120.13;5011662;28;20072;-80
2022/05/08 05:19:39;;;;;;;4.22;3.58;;;;;;;14.67;nan;101126.94;5031675;28;20041;-81
2022/05/08 05:22:05;;;;;;;5.63;3.75;;;;;;;14.81;nan;101128.13;5033720;28;20041;-81
2022/05/08 05:24:30;;;;;;;4.85;4.30;;;;;;;14.89;nan;101120.16;5028846;28;20061;-81
2022/05/08 05:26:56;;;;;;;5.18;4.22;;;;;;;14.94;nan;101123.13;5012870;28;20033;-81
2022/05/08 05:29:22;;;;;;;4.32;3.85;;;;;;;15.05;nan;101125.47;5034798;28;20056;-82
2022/05/08 05:31:47;;;;;;;4.00;3.47;;;;;;;15.23;nan;101122.66;5030029;28;20042;-81
2022/05/08 05:34:12;;;;;;;4.22;3.70;;;;;;;15.45;nan;101121.13;5019006;28;20091;-81
2022/05/08 05:36:38;;;;;;;3.90;3.27;;;;;;;15.95;nan;101137.88;5032439;28;20916;-81
2022/05/08 05:39:03;;;;;;;5.03;4.53;;;;;;;15.91;nan;101129.38;5035545;28;20037;-82
2022/05/08 05:41:28;;;;;;;4.20;3.80;;;;;;;16.25;nan;101135.41;5050689;28;20406;-81
2022/05/08 05:43:54;;;;;;;4.50;3.87;;;;;;;16.52;nan;101142.94;5029376;28;20419;-82
2022/05/08 05:49:04;;;;;;;8.35;4.88;;;;;;;16.75;nan;101134.13;5050643;28;20264;-82
2022/05/08 05:51:29;;;;;;;5.18;4.68;;;;;;;16.85;nan;101140.09;5039690;28;20038;-81
2022/05/08 05:53:55;;;;;;;4.60;4.10;;;;;;;17.20;nan;101132.47;5021285;28;20483;-81
2022/05/08 05:56:20;;;;;;;6.35;5.03;;;;;;;17.38;nan;101140.19;5043611;28;20038;-82
2022/05/08 05:58:45;;;;;;;5.23;4.33;;;;;;;17.87;nan;101136.19;5036093;28;20422;-81
2022/05/08 06:01:11;;;;;;;5.70;4.82;;;;;;;18.08;nan;101135.44;5022675;28;20037;-82
2022/05/08 06:03:38;;;;;;;;;;;;;;;18.29;nan;101145.38;5022949;28;20044;-82
2022/05/08 06:06:03;;;;;;;6.60;4.70;;;;;;;18.66;nan;101149.69;5036841;28;19917;-81
2022/05/08 06:08:28;;;;;;;6.20;4.50;;;;;;;18.95;nan;101146.13;5048194;28;20140;-82
2022/05/08 06:10:54;;;;;;;6.30;4.38;;;;;;;19.13;nan;101151.03;5029915;28;20037;-82
2022/05/08 06:13:21;;;;;;;5.65;4.97;;;;;;;19.40;nan;101151.25;5047815;28;20037;-81
2022/05/08 06:15:47;;;;;;;5.47;4.35;;;;;;;19.71;nan;101151.72;5035220;28;20503;-81
2022/05/08 06:18:12;;;;;;;4.93;3.60;;;;;;;20.08;nan;101152.31;5043778;28;20075;-81
2022/05/08 06:20:38;;;;;;;4.43;4.00;;;;;;;20.35;nan;101157.81;5018276;28;20092;-81
2022/05/08 06:23:03;;;;;;;6.13;4.78;;;;;;;20.71;nan;101154.00;5036392;28;21204;-81
2022/05/08 06:25:29;;;;;;;5.00;4.15;;;;;;;20.91;nan;101148.69;5020139;28;20361;-82
2022/05/08 06:27:55;;;;;;;5.57;4.70;;;;;;;21.00;nan;101153.66;5050236;28;20034;-82
2022/05/08 06:30:20;;;;;;;8.13;4.43;;;;;;;21.04;nan;101156.75;5032114;28;20505;-82
2022/05/08 06:32:46;;;;;;;;;;;;;;;21.13;nan;101152.00;5049062;28;20033;-83
2022/05/08 06:35:11;;;;;;;5.33;4.10;;;;;;;21.10;nan;101147.88;5031936;28;19932;-84
2022/05/08 06:37:36;;;;;;;;;;;;;;;20.95;nan;101156.16;5043399;28;20034;-82
2022/05/08 06:40:02;;;;;;;4.90;3.60;;;;;;;21.02;nan;101156.13;5028755;28;19917;-83
2022/05/08 06:42:28;;;;;;;5.28;4.10;;;;;;;21.25;nan;101158.44;5044133;28;20442;-82
2022/05/08 06:44:53;;;;;;;;;;;;;;;21.63;nan;101155.13;5047495;28;20057;-83
2022/05/08 06:47:18;;;;;;;4.30;3.23;;;;;;;22.26;nan;101154.53;5047198;28;19917;-82
2022/05/08 06:49:44;;;;;;;3.63;2.90;;;;;;;22.48;nan;101163.16;5048322;28;20029;-83
2022/05/08 06:52:09;;;;;;;5.13;3.10;;;;;;;22.81;nan;101168.38;5044787;28;20037;-81
2022/05/08 06:54:34;;;;;;;4.93;3.55;;;;;;;22.69;nan;101165.53;5039404;28;20132;-82
2022/05/08 06:57:00;;;;;;;4.43;3.20;;;;;;;22.66;nan;101163.25;5040519;28;20040;-82
2022/05/08 07:02:11;;;;;;;5.90;3.45;;;;;;;22.84;nan;101161.72;5044486;28;20040;-83
2022/05/08 07:04:38;;;;;;;4.13;3.35;;;;;;;22.59;nan;101167.88;5045714;28;20499;-83
2022/05/08 07:07:03;;;;;;;;;;;;;;;22.24;nan;101170.94;5049713;28;20063;-82
2022/05/08 07:09:30;;;;;;;5.30;3.60;;;;;;;21.88;nan;101179.53;5030752;28;19921;-82
2022/05/08 07:11:55;;;;;;;;;;;;;;;22.09;nan;101173.03;5032643;28;20064;-82
2022/05/08 07:14:21;;;;;;;4.77;3.50;;;;;;;21.95;nan;101182.19;5047958;28;19963;-82
2022/05/08 07:16:46;;;;;;;4.28;3.40;;;;;;;21.66;nan;101183.47;5048182;28;20037;-82
2022/05/08 07:19:11;;;;;;;4.57;3.33;;;;;;;21.66;nan;101178.91;5048862;28;20052;-82
2022/05/08 07:21:37;;;;;;;3.20;2.40;;;;;;;21.92;nan;101186.13;5049136;28;20116;-83
2022/05/08 07:24:04;;;;;;;5.03;3.80;;;;;;;22.01;nan;101181.34;5048659;28;20045;-82
2022/05/08 07:26:29;;;;;;;4.32;3.10;;;;;;;22.08;nan;101184.03;5049436;28;20056;-82
2022/05/08 07:28:54;;;;;;;3.80;2.85;;;;;;;22.32;nan;101186.03;5047939;28;20128;-82
2022/05/08 07:31:20;;;;;;;3.75;2.90;;;;;;;22.35;nan;101187.47;5046865;28;20045;-82
2022/05/08 07:33:45;;;;;;;4.50;2.80;;;;;;;22.51;nan;101178.91;5048194;28;20048;-83
2022/05/08 07:36:14;;;;;;;2.97;2.38;;;;;;;22.92;nan;101182.19;5047492;28;20045;-82
2022/05/08 07:38:46;;;;;;;4.75;3.08;;;;;;;23.01;nan;101189.84;5036240;28;20037;-82
2022/05/08 07:41:15;;;;;;;4.55;2.92;;;;;;;23.07;nan;101190.81;5034274;28;20034;-84
2022/05/08 07:43:47;;;;;;;4.20;2.30;;;;;;;23.20;nan;101190.75;5013740;28;20030;-81
2022/05/08 07:46:14;;;;;;;3.67;2.45;;;;;;;23.39;nan;101190.81;5010929;28;20034;-81
2022/05/08 07:48:40;;;;;;;3.60;2.60;;;;;;;23.68;nan;101190.13;5031993;28;20030;-81
2022/05/08 07:51:05;;;;;;;3.40;2.17;;;;;;;23.94;nan;101197.16;5023554;28;20098;-81
2022/05/08 07:53:32;;;;;;;3.65;2.00;;;;;;;24.35;nan;101187.53;5022798;28;20045;-81
2022/05/08 07:55:58;;;;;;;4.15;2.15;;;;;;;24.86;nan;101192.72;5034886;28;20025;-81
2022/05/08 07:58:27;;;;;;;3.92;2.22;;;;;;;25.19;nan;101201.22;5030171;28;20398;-82
2022/05/08 08:00:53;;;;;;;3.25;2.03;;;;;;;25.17;nan;101195.19;5021995;28;20413;-82
2022/05/08 08:03:20;;;;;;;3.58;2.05;;;;;;;25.25;nan;101201.34;5021738;28;20128;-81
2022/05/08 08:05:46;;;;;;;2.20;1.80;;;;;;;25.43;nan;101201.22;5020518;28;20036;-84
2022/05/08 08:08:12;;;;;;;2.83;2.00;;;;;;;25.94;nan;101210.56;5041462;28;20029;-83
2022/05/08 08:10:37;;;;;;;3.35;2.30;;;;;;;26.16;nan;101208.03;5045173;28;20510;-84
2022/05/08 08:13:03;;;;;;;3.58;1.98;;;;;;;26.26;nan;101204.72;5019456;28;20030;-83
2022/05/08 08:15:28;;;;;;;2.95;2.10;;;;;;;26.42;nan;101206.69;5047168;28;20033;-82
2022/05/08 08:17:54;;;;;;;2.00;1.73;;;;;;;26.47;nan;101203.25;5043463;28;20478;-83
2022/05/08 08:20:19;;;;;;;3.78;1.98;;;;;;;26.12;nan;101206.03;5040984;28;20064;-81
2022/05/08 08:22:45;;;;;;;;;;;;;;;25.95;nan;101212.19;5021325;28;20121;-84
2022/05/08 08:25:10;;;;;;;;;;;;;;;25.66;nan;101208.53;5037797;28;19917;-83
2022/05/08 08:27:35;;;;;;;3.40;2.43;;;;;;;25.63;nan;101212.53;5021291;28;19917;-82
2022/05/08 08:30:03;;;;;;;2.85;2.10;;;;;;;25.60;nan;101209.50;5039800;28;20041;-82
2022/05/08 08:32:30;;;;;;;;;;;;;;;25.81;nan;101210.75;5033443;28;20034;-82
2022/05/08 08:34:55;;;;;;;5.15;2.20;;;;;;;25.71;nan;101205.94;5040532;28;19939;-81
2022/05/08 08:37:20;;;;;;;4.13;2.00;;;;;;;26.05;nan;101211.59;5016192;28;20029;-82
2022/05/08 08:39:46;;;;;;;3.70;2.47;;;;;;;25.75;nan;101206.31;5014804;28;20037;-82
2022/05/08 08:42:31;;;;;;;2.60;1.80;;;;;;;26.51;nan;101204.41;5024466;28;20411;-83
2022/05/08 08:47:53;;;;;;;2.65;1.75;;;;;;;27.59;nan;101201.72;5043378;28;20065;-84
2022/05/08 08:50:22;;;;;;;2.47;1.77;;;;;;;27.84;nan;101203.19;5041327;28;20053;-85
2022/05/08 08:52:48;;;;;;;2.65;1.90;;;;;;;28.45;nan;101205.84;5044019;28;20108;-83
2022/05/08 08:55:15;;;;;;;2.92;1.90;;;;;;;28.81;nan;101209.81;5045840;28;20064;-84
2022/05/08 08:57:41;;;;;;;2.40;2.00;;;;;;;29.23;nan;101209.13;5029288;28;20034;-83
2022/05/08 09:00:08;;;;;;;4.18;2.28;;;;;;;29.17;nan;101207.44;5039978;28;19920;-84
2022/05/08 09:02:34;;;;;;;3.60;2.00;;;;;;;28.90;nan;101213.72;5031430;28;20053;-84
2022/05/08 09:05:04;;;;;;;3.15;2.40;;;;;;;29.23;nan;101206.41;5042007;28;20039;-84
2022/05/08 09:07:38;;;;;;;3.30;2.10;;;;;;;29.80;nan;101213.13;5030592;28;20076;-83
2022/05/08 09:10:10;;;;;;;3.20;2.30;;;;;;;29.85;nan;101208.50;5042241;28;20033;-84
2022/05/08 09:12:35;;;;;;;;;;;;;;;30.38;nan;101204.94;5045443;28;20049;-84
2022/05/08 09:15:37;;;;;;;3.25;2.08;;;;;;;30.50;nan;101210.16;5029087;28;20314;-84
2022/05/08 09:18:09;;;;;;;3.13;1.95;;;;;;;30.74;nan;101199.56;4987764;28;20058;-84
2022/05/08 09:20:44;;;;;;;6.20;2.40;;;;;;;30.90;nan;101207.53;5036347;28;20184;-83
2022/05/08 09:23:16;;;;;;;4.00;2.28;;;;;;;30.92;nan;101203.72;5048568;28;20507;-83
2022/05/08 09:25:51;;;;;;;3.13;2.22;;;;;;;30.98;nan;101208.91;5048663;28;20052;-83
2022/05/08 09:28:27;;;;;;;4.10;1.90;;;;;;;31.59;nan;101201.81;5048428;28;20038;-83
2022/05/08 09:31:00;;;;;;;3.70;2.10;;;;;;;32.19;nan;101200.00;5048740;28;20048;-83
2022/05/08 09:33:36;;;;;;;3.08;2.08;;;;;;;32.48;nan;101200.09;5049871;28;20038;-83
2022/05/08 09:36:23;;;;;;;3.47;2.42;;;;;;;32.49;nan;101198.19;5043630;28;20046;-85
2022/05/08 09:38:53;;;;;;;3.72;2.10;;;;;;;32.87;nan;101202.09;5047781;28;20393;-83
2022/05/08 09:41:19;;;;;;;3.33;2.33;;;;;;;32.94;nan;101190.78;5049767;28;20052;-83
2022/05/08 09:43:45;;;;;;;4.05;1.90;;;;;;;32.88;nan;101194.69;5031432;28;20030;-83
2022/05/08 09:46:11;;;;;;;2.58;1.83;;;;;;;33.44;nan;101188.72;5048746;28;20043;-84
2022/05/08 09:48:37;;;;;;;3.25;2.38;;;;;;;33.82;nan;101191.63;5050297;28;20116;-83
2022/05/08 09:51:08;;;;;;;2.35;1.40;;;;;;;34.23;nan;101182.94;5049518;28;20397;-83
2022/05/08 09:53:36;;;;;;;2.57;1.73;;;;;;;33.78;nan;101180.44;5041280;28;21047;-83
2022/05/08 09:56:04;;;;;;;3.60;1.90;;;;;;;34.46;nan;101182.03;5043187;28;20037;-84
2022/05/08 09:58:30;;;;;;;2.38;1.92;;;;;;;33.94;nan;101185.75;5044401;28;20034;-84
2022/05/08 10:00:56;;;;;;;2.38;1.80;;;;;;;34.12;nan;101170.47;5050511;28;20082;-84
2022/05/08 10:03:22;;;;;;;2.78;1.75;;;;;;;32.62;nan;101170.22;5045126;28;20061;-84
2022/05/08 10:05:48;;;;;;;2.63;1.85;;;;;;;30.68;nan;101166.81;5049873;28;20037;-83
2022/05/08 10:08:16;;;;;;;2.72;1.77;;;;;;;29.41;nan;101170.59;5045820;28;20499;-84
2022/05/08 10:14:22;;;;;;;3.65;2.10;;;;;;;30.55;nan;101169.22;5051682;28;20041;-83
2022/05/08 10:16:43;;;;;;;3.83;2.13;;;;;;;31.57;nan;101160.25;5035305;28;21318;-83
2022/05/08 10:19:32;;;;;;;3.17;2.00;;;;;;;32.40;nan;101172.53;5044443;28;20049;-83
2022/05/08 10:21:59;;;;;;;3.40;1.98;;;;;;;31.05;nan;101160.28;5020663;28;20034;-84
2022/05/08 10:24:43;;;;;;;4.15;2.30;;;;;;;28.66;nan;101152.50;5027187;28;20037;-83
2022/05/08 10:27:23;;;;;;;2.80;2.10;;;;;;;27.63;nan;101162.13;5045965;28;20045;-84
2022/05/08 10:29:49;;;;;;;3.13;2.10;;;;;;;26.48;nan;101151.50;5030377;28;20042;-83
2022/05/08 10:32:32;;;;;;;4.05;2.30;;;;;;;25.76;nan;101157.28;5038309;28;20105;-83
2022/05/08 10:35:11;;;;;;;3.40;2.00;;;;;;;25.66;nan;101153.53;5030603;28;20049;-83
2022/05/08 10:37:40;;;;;;;3.60;2.58;;;;;;;26.11;nan;101161.03;5033871;28;20133;-82
2022/05/08 10:40:21;;;;;;;2.85;1.90;;;;;;;29.43;nan;101160.22;5042671;28;20088;-83
2022/05/08 10:42:47;;;;;;;;;;;;;;;31.81;nan;101153.06;5042328;28;20125;-83
2022/05/08 10:45:31;;;;;;;2.50;1.98;;;;;;;33.06;nan;101152.94;5044734;28;19917;-83
2022/05/08 10:48:03;;;;;;;2.33;1.83;;;;;;;32.33;nan;101150.94;5048512;28;20038;-84
2022/05/08 10:50:29;;;;;;;3.05;2.03;;;;;;;31.88;nan;101150.03;5029666;28;20064;-84
2022/05/08 10:52:57;;;;;;;3.33;2.20;;;;;;;30.51;nan;101147.13;5045314;28;20038;-84
2022/05/08 10:55:22;;;;;;;;;;;;;;;29.22;nan;101150.28;5044166;28;20415;-83
2022/05/08 10:57:50;;;;;;;3.05;2.00;;;;;;;29.36;nan;101151.47;5048696;28;19928;-83
2022/05/08 11:00:26;;;;;;;2.70;1.90;;;;;;;28.97;nan;101150.88;5046488;28;20054;-83
2022/05/08 11:02:56;;;;;;;2.67;1.70;;;;;;;28.60;nan;101143.47;5054810;28;20044;-83
2022/05/08 11:05:26;;;;;;;3.55;2.28;;;;;;;27.66;nan;101144.50;5043595;28;20049;-83
2022/05/08 11:08:02;;;;;;;3.92;2.40;;;;;;;26.92;nan;101141.97;5044432;28;20057;-83
2022/05/08 11:10:29;;;;;;;2.95;2.20;;;;;;;26.28;nan;101146.47;5046471;28;20033;-83
2022/05/08 11:12:59;;;;;;;4.22;2.45;;;;;;;25.98;nan;101146.69;5046616;28;20094;-83
2022/05/08 11:15:26;;;;;;;3.08;2.35;;;;;;;25.95;nan;101151.75;5046324;28;20037;-83
2022/05/08 11:18:09;;;;;;;3.35;2.30;;;;;;;25.80;nan;101152.22;5045167;28;20047;-83
2022/05/08 11:20:36;;;;;;;2.67;2.10;;;;;;;25.62;nan;101153.19;5013885;28;20197;-83
2022/05/08 11:23:05;;;;;;;3.20;2.30;;;;;;;25.38;nan;101147.75;5049262;28;20063;-83
2022/05/08 11:25:34;;;;;;;3.15;2.10;;;;;;;25.16;nan;101155.59;5031163;28;20053;-82
2022/05/08 11:28:00;;;;;;;3.47;2.35;;;;;;;25.00;nan;101150.88;5024078;28;20032;-82
2022/05/08 11:30:29;;;;;;;2.88;2.10;;;;;;;24.96;nan;101153.22;5012896;28;20037;-81
2022/05/08 11:36:06;;;;;;;3.75;1.88;;;;;;;27.76;nan;101150.06;5027825;28;20041;-82
2022/05/08 11:38:44;;;;;;;3.15;2.08;;;;;;;31.68;nan;101148.19;5032060;28;20033;-82
2022/05/08 11:41:19;;;;;;;2.78;1.88;;;;;;;32.77;nan;101140.00;5016578;28;20037;-82
2022/05/08 11:43:54;;;;;;;2.95;1.60;;;;;;;31.95;nan;101140.47;5040938;28;20048;-83
2022/05/08 11:46:31;;;;;;;2.20;1.42;;;;;;;31.74;nan;101145.16;5051111;28;20028;-83
2022/05/08 11:48:57;;;;;;;3.33;1.60;;;;;;;30.91;nan;101131.88;5035991;28;20093;-84
2022/05/08 11:51:23;;;;;;;2.63;1.70;;;;;;;30.03;nan;101130.88;5051473;28;20072;-84
2022/05/08 11:53:51;;;;;;;3.50;1.92;;;;;;;29.27;nan;101130.44;5035103;28;20041;-83
2022/05/08 11:56:32;;;;;;;3.30;1.90;;;;;;;28.54;nan;101126.28;5033460;28;20041;-83
2022/05/08 11:59:03;;;;;;;3.65;1.80;;;;;;;28.14;nan;101130.16;5050695;28;20044;-83
2022/05/08 12:01:31;;;;;;;2.42;1.50;;;;;;;28.26;nan;101127.31;5032593;28;20013;-83
2022/05/08 12:04:21;;;;;;;2.10;1.40;;;;;;;28.34;nan;101126.03;5046584;28;20396;-84
2022/05/08 12:07:01;;;;;;;2.92;1.70;;;;;;;28.36;nan;101118.44;5027698;28;20033;-82
2022/05/08 12:09:35;;;;;;;3.03;2.17;;;;;;;27.99;nan;101116.41;5033849;28;20037;-82
2022/05/08 12:12:29;;;;;;;2.70;1.98;;;;;;;27.16;nan;101112.75;5026644;28;20100;-82